createdAt,value
2023-04-29T00:00:07.887Z,10.71
2023-04-29T00:01:07.814Z,10.77
2023-04-29T00:02:30.464Z,10.71
2023-04-29T00:03:28.843Z,10.74
2023-04-29T00:04:07.745Z,10.75
2023-04-29T00:05:07.753Z,10.83
2023-04-29T00:06:07.527Z,10.87
2023-04-29T00:07:28.314Z,10.92
2023-04-29T00:08:28.252Z,10.93
2023-04-29T00:09:07.170Z,10.92
2023-04-29T00:10:07.103Z,10.95
2023-04-29T00:11:07.019Z,10.98
2023-04-29T00:12:27.948Z,11.05
2023-04-29T00:13:27.809Z,10.99
2023-04-29T00:14:06.770Z,11.05
2023-04-29T00:15:06.687Z,11.10
2023-04-29T00:16:06.617Z,11.10
2023-04-29T00:17:27.567Z,11.08
2023-04-29T00:18:27.424Z,11.03
2023-04-29T00:19:06.374Z,11.00
2023-04-29T00:20:06.304Z,11.02
2023-04-29T00:21:06.305Z,10.99
2023-04-29T00:22:27.136Z,10.95
2023-04-29T00:23:27.042Z,10.88
2023-04-29T00:24:05.983Z,10.91
2023-04-29T00:25:05.882Z,10.84
2023-04-29T00:26:05.838Z,10.96
2023-04-29T00:27:26.707Z,10.99
2023-04-29T00:28:26.673Z,11.02
2023-04-29T00:29:05.580Z,11.03
2023-04-29T00:30:05.477Z,11.00
2023-04-29T00:31:05.410Z,11.02
2023-04-29T00:32:26.330Z,11.16
2023-04-29T00:33:26.257Z,11.08
2023-04-29T00:34:05.175Z,11.08
2023-04-29T00:35:05.082Z,11.13
2023-04-29T00:36:05.008Z,11.21
2023-04-29T00:37:25.978Z,11.26
2023-04-29T00:38:25.915Z,11.17
2023-04-29T00:39:04.752Z,11.06
2023-04-29T00:40:04.679Z,11.05
2023-04-29T00:41:04.615Z,11.11
2023-04-29T00:42:25.488Z,11.11
2023-04-29T00:43:25.438Z,11.14
2023-04-29T00:44:04.357Z,11.13
2023-04-29T00:45:04.822Z,11.03
2023-04-29T00:46:04.232Z,11.08
2023-04-29T00:47:25.135Z,11.11
2023-04-29T00:48:25.032Z,11.11
2023-04-29T00:49:03.978Z,11.14
2023-04-29T00:50:03.973Z,11.16
2023-04-29T00:51:03.808Z,11.13
2023-04-29T00:52:24.720Z,11.17
2023-04-29T00:53:24.640Z,11.29
2023-04-29T00:54:03.579Z,11.31
2023-04-29T00:55:03.474Z,11.23
2023-04-29T00:56:03.399Z,11.11
2023-04-29T00:57:24.291Z,11.08
2023-04-29T00:58:24.211Z,11.13
2023-04-29T00:59:03.174Z,11.08
2023-04-29T01:00:03.069Z,11.08
2023-04-29T01:01:03.053Z,11.06
2023-04-29T01:02:23.960Z,11.13
2023-04-29T01:03:23.960Z,11.14
2023-04-29T01:04:02.900Z,11.06
2023-04-29T01:05:02.659Z,11.11
2023-04-29T01:06:02.623Z,11.06
2023-04-29T01:07:23.465Z,11.14
2023-04-29T01:08:23.437Z,11.13
2023-04-29T01:09:02.339Z,11.18
2023-04-29T01:10:02.270Z,11.16
2023-04-29T01:11:02.203Z,11.26
2023-04-29T01:12:23.091Z,11.26
2023-04-29T01:13:22.978Z,11.32
2023-04-29T01:14:01.950Z,11.21
2023-04-29T01:15:01.858Z,11.36
2023-04-29T01:16:01.918Z,11.28
2023-04-29T01:17:22.706Z,11.14
2023-04-29T01:18:22.627Z,11.13
2023-04-29T01:19:01.522Z,11.23
2023-04-29T01:20:01.489Z,11.16
2023-04-29T01:21:01.406Z,11.11
2023-04-29T01:22:22.288Z,11.11
2023-04-29T01:23:22.216Z,11.10
2023-04-29T01:24:01.150Z,11.16
2023-04-29T01:25:01.054Z,11.23
2023-04-29T01:26:00.977Z,11.29
2023-04-29T01:27:21.905Z,11.35
2023-04-29T01:28:21.808Z,11.26
2023-04-29T01:29:00.736Z,11.32
2023-04-29T01:30:00.700Z,11.26
2023-04-29T01:31:00.597Z,11.20
2023-04-29T01:32:21.515Z,11.34
2023-04-29T01:33:21.412Z,11.26
2023-04-29T01:34:00.345Z,11.32
2023-04-29T01:35:00.262Z,11.35
2023-04-29T01:36:00.187Z,11.34
2023-04-29T01:37:21.065Z,11.38
2023-04-29T01:38:20.988Z,11.34
2023-04-29T01:38:59.949Z,11.46
2023-04-29T01:39:59.843Z,11.41
2023-04-29T01:40:59.782Z,11.34
2023-04-29T01:42:20.684Z,11.41
2023-04-29T01:43:20.575Z,11.39
2023-04-29T01:43:59.557Z,11.39
2023-04-29T01:44:59.421Z,11.34
2023-04-29T01:45:59.354Z,11.29
2023-04-29T01:47:20.251Z,11.29
2023-04-29T01:48:20.193Z,11.34
2023-04-29T01:48:59.113Z,11.36
2023-04-29T01:49:59.087Z,11.34
2023-04-29T01:50:58.968Z,11.31
2023-04-29T01:52:19.881Z,11.31
2023-04-29T01:53:19.793Z,11.23
2023-04-29T01:53:58.761Z,11.24
2023-04-29T01:54:58.637Z,11.31
2023-04-29T01:55:58.605Z,11.36
2023-04-29T01:57:19.513Z,11.29
2023-04-29T01:58:19.389Z,11.29
2023-04-29T01:58:58.299Z,11.24
2023-04-29T01:59:58.250Z,11.31
2023-04-29T02:00:58.236Z,11.24
2023-04-29T02:02:19.118Z,11.26
2023-04-29T02:03:19.006Z,11.36
2023-04-29T02:03:58.074Z,11.34
2023-04-29T02:04:57.906Z,11.29
2023-04-29T02:05:57.756Z,11.32
2023-04-29T02:07:18.672Z,11.34
2023-04-29T02:08:18.593Z,11.26
2023-04-29T02:08:57.519Z,11.34
2023-04-29T02:09:57.472Z,11.32
2023-04-29T02:10:57.360Z,11.31
2023-04-29T02:12:18.245Z,11.28
2023-04-29T02:13:18.210Z,11.32
2023-04-29T02:13:57.116Z,11.26
2023-04-29T02:14:57.057Z,11.28
2023-04-29T02:15:56.980Z,11.23
2023-04-29T02:17:17.906Z,11.28
2023-04-29T02:18:17.772Z,11.34
2023-04-29T02:18:56.748Z,11.26
2023-04-29T02:19:56.637Z,11.29
2023-04-29T02:20:56.557Z,11.26
2023-04-29T02:22:17.447Z,11.23
2023-04-29T02:23:17.388Z,11.29
2023-04-29T02:23:56.311Z,11.29
2023-04-29T02:24:56.217Z,11.29
2023-04-29T02:25:56.151Z,11.28
2023-04-29T02:27:17.049Z,11.29
2023-04-29T02:28:16.997Z,11.26
2023-04-29T02:28:55.914Z,11.23
2023-04-29T02:29:55.812Z,11.21
2023-04-29T02:30:55.733Z,11.16
2023-04-29T02:32:16.729Z,11.24
2023-04-29T02:33:16.576Z,11.31
2023-04-29T02:33:55.519Z,11.35
2023-04-29T02:34:55.454Z,11.39
2023-04-29T02:35:55.341Z,11.36
2023-04-29T02:37:16.246Z,11.38
2023-04-29T02:38:16.187Z,11.36
2023-04-29T02:38:55.125Z,11.38
2023-04-29T02:39:55.230Z,11.36
2023-04-29T02:40:54.943Z,11.32
2023-04-29T02:42:15.866Z,11.34
2023-04-29T02:43:15.778Z,11.28
2023-04-29T02:43:54.726Z,11.29
2023-04-29T02:44:54.624Z,11.29
2023-04-29T02:45:54.564Z,11.34
2023-04-29T02:47:15.434Z,11.29
2023-04-29T02:48:15.368Z,11.32
2023-04-29T02:48:54.317Z,11.21
2023-04-29T02:49:54.458Z,11.29
2023-04-29T02:50:54.153Z,11.31
2023-04-29T02:52:15.082Z,11.26
2023-04-29T02:53:14.983Z,11.38
2023-04-29T02:53:53.884Z,11.31
2023-04-29T02:54:53.829Z,11.36
2023-04-29T02:55:53.760Z,11.31
2023-04-29T02:57:14.699Z,11.24
2023-04-29T02:58:14.553Z,11.06
2023-04-29T02:58:53.518Z,11.03
2023-04-29T02:59:53.699Z,10.91
2023-04-29T03:00:53.380Z,10.84
2023-04-29T03:02:14.368Z,10.85
2023-04-29T03:03:14.356Z,10.88
2023-04-29T03:03:53.252Z,10.80
2023-04-29T03:04:53.015Z,10.87
2023-04-29T03:05:52.922Z,10.83
2023-04-29T03:07:13.820Z,10.87
2023-04-29T03:08:13.737Z,10.88
2023-04-29T03:08:52.731Z,10.84
2023-04-29T03:09:52.854Z,10.88
2023-04-29T03:10:52.532Z,10.84
2023-04-29T03:12:13.438Z,10.78
2023-04-29T03:13:13.392Z,10.56
2023-04-29T03:13:52.282Z,10.51
2023-04-29T03:14:52.239Z,10.33
2023-04-29T03:15:52.120Z,10.23
2023-04-29T03:17:13.044Z,10.13
2023-04-29T03:18:13.025Z,10.11
2023-04-29T03:18:51.889Z,10.18
2023-04-29T03:19:52.027Z,10.10
2023-04-29T03:20:51.741Z,10.07
2023-04-29T03:22:12.619Z,10.08
2023-04-29T03:23:12.545Z,10.07
2023-04-29T03:23:51.482Z,10.10
2023-04-29T03:24:51.411Z,10.22
2023-04-29T03:25:51.357Z,10.22
2023-04-29T03:27:12.219Z,10.13
2023-04-29T03:28:12.122Z,10.13
2023-04-29T03:28:51.102Z,10.16
2023-04-29T03:29:51.279Z,10.15
2023-04-29T03:30:50.931Z,10.07
2023-04-29T03:32:11.809Z,10.04
2023-04-29T03:33:11.758Z,10.03
2023-04-29T03:33:50.662Z,9.92
2023-04-29T03:34:50.601Z,9.92
2023-04-29T03:35:50.488Z,9.88
2023-04-29T03:37:11.439Z,9.90
2023-04-29T03:38:11.319Z,9.96
2023-04-29T03:38:50.270Z,9.96
2023-04-29T03:39:50.178Z,9.86
2023-04-29T03:40:50.107Z,9.92
2023-04-29T03:42:11.011Z,10.03
2023-04-29T03:43:10.941Z,9.92
2023-04-29T03:43:49.831Z,9.93
2023-04-29T03:44:49.778Z,9.97
2023-04-29T03:45:49.725Z,9.90
2023-04-29T03:47:10.605Z,9.93
2023-04-29T03:48:10.501Z,10.01
2023-04-29T03:48:49.460Z,10.03
2023-04-29T03:49:49.412Z,10.07
2023-04-29T03:50:49.309Z,10.07
2023-04-29T03:52:10.165Z,10.08
2023-04-29T03:53:10.137Z,10.10
2023-04-29T03:53:49.032Z,10.13
2023-04-29T03:54:48.999Z,10.13
2023-04-29T03:55:48.886Z,10.22
2023-04-29T03:57:09.817Z,10.26
2023-04-29T03:58:09.708Z,10.26
2023-04-29T03:58:48.654Z,10.28
2023-04-29T03:59:48.581Z,10.18
2023-04-29T04:00:48.506Z,10.26
2023-04-29T04:02:09.416Z,10.16
2023-04-29T04:03:09.451Z,10.16
2023-04-29T04:03:48.401Z,10.16
2023-04-29T04:04:48.390Z,10.13
2023-04-29T04:05:48.059Z,10.15
2023-04-29T04:07:08.981Z,10.06
2023-04-29T04:08:08.875Z,10.04
2023-04-29T04:08:47.813Z,10.07
2023-04-29T04:09:47.765Z,10.07
2023-04-29T04:10:47.646Z,10.08
2023-04-29T04:12:08.583Z,10.07
2023-04-29T04:13:08.473Z,10.04
2023-04-29T04:13:47.432Z,10.06
2023-04-29T04:14:47.351Z,10.07
2023-04-29T04:15:47.291Z,10.13
2023-04-29T04:17:08.171Z,10.13
2023-04-29T04:18:08.131Z,10.13
2023-04-29T04:18:47.057Z,10.16
2023-04-29T04:19:46.931Z,10.16
2023-04-29T04:20:46.858Z,10.19
2023-04-29T04:22:07.806Z,10.25
2023-04-29T04:23:07.671Z,10.16
2023-04-29T04:23:46.594Z,10.23
2023-04-29T04:24:46.547Z,10.23
2023-04-29T04:25:46.451Z,10.25
2023-04-29T04:27:07.365Z,10.23
2023-04-29T04:28:07.244Z,10.11
2023-04-29T04:28:46.192Z,10.23
2023-04-29T04:29:46.122Z,10.21
2023-04-29T04:30:46.082Z,10.23
2023-04-29T04:32:06.988Z,10.22
2023-04-29T04:33:06.897Z,10.22
2023-04-29T04:33:45.832Z,10.21
2023-04-29T04:34:45.719Z,10.36
2023-04-29T04:35:45.647Z,10.36
2023-04-29T04:37:06.567Z,10.39
2023-04-29T04:38:06.483Z,10.41
2023-04-29T04:38:45.403Z,10.39
2023-04-29T04:39:45.343Z,10.41
2023-04-29T04:40:45.230Z,10.37
2023-04-29T04:42:06.134Z,10.40
2023-04-29T04:43:06.067Z,10.43
2023-04-29T04:43:44.983Z,10.51
2023-04-29T04:44:44.924Z,10.46
2023-04-29T04:45:44.879Z,10.53
2023-04-29T04:47:05.740Z,10.55
2023-04-29T04:48:05.717Z,10.59
2023-04-29T04:48:44.606Z,10.58
2023-04-29T04:49:44.532Z,10.58
2023-04-29T04:50:44.432Z,10.56
2023-04-29T04:52:05.348Z,10.51
2023-04-29T04:53:05.283Z,10.55
2023-04-29T04:53:44.180Z,10.67
2023-04-29T04:54:44.099Z,10.66
2023-04-29T04:55:44.024Z,10.66
2023-04-29T04:57:04.937Z,10.83
2023-04-29T04:58:04.864Z,10.87
2023-04-29T04:58:43.787Z,10.92
2023-04-29T04:59:43.722Z,11.03
2023-04-29T05:00:43.657Z,11.10
2023-04-29T05:02:04.532Z,11.11
2023-04-29T05:03:04.588Z,11.18
2023-04-29T05:03:43.633Z,11.29
2023-04-29T05:04:43.290Z,11.29
2023-04-29T05:05:43.221Z,11.24
2023-04-29T05:07:04.164Z,11.28
2023-04-29T05:08:04.027Z,11.36
2023-04-29T05:08:42.965Z,11.29
2023-04-29T05:09:42.915Z,11.38
2023-04-29T05:10:44.400Z,11.32
2023-04-29T05:12:03.705Z,11.46
2023-04-29T05:13:03.668Z,11.43
2023-04-29T05:13:42.575Z,11.47
2023-04-29T05:14:42.496Z,11.59
2023-04-29T05:15:42.432Z,11.61
2023-04-29T05:17:03.489Z,11.61
2023-04-29T05:18:03.243Z,11.54
2023-04-29T05:18:42.169Z,11.54
2023-04-29T05:19:42.091Z,11.54
2023-04-29T05:20:42.023Z,11.67
2023-04-29T05:22:02.885Z,11.68
2023-04-29T05:23:02.882Z,11.72
2023-04-29T05:23:41.763Z,11.84
2023-04-29T05:24:41.723Z,11.78
2023-04-29T05:25:41.590Z,11.87
2023-04-29T05:27:02.506Z,11.86
2023-04-29T05:28:02.445Z,11.95
2023-04-29T05:28:41.395Z,11.98
2023-04-29T05:29:41.265Z,12.09
2023-04-29T05:30:41.275Z,12.15
2023-04-29T05:32:02.081Z,12.15
2023-04-29T05:33:02.084Z,12.18
2023-04-29T05:33:40.964Z,12.26
2023-04-29T05:34:40.914Z,12.26
2023-04-29T05:35:40.822Z,12.28
2023-04-29T05:37:01.710Z,12.37
2023-04-29T05:38:01.631Z,12.34
2023-04-29T05:38:40.573Z,12.39
2023-04-29T05:39:40.595Z,12.41
2023-04-29T05:40:40.413Z,12.44
2023-04-29T05:42:01.293Z,12.51
2023-04-29T05:43:01.200Z,12.44
2023-04-29T05:43:40.177Z,12.45
2023-04-29T05:44:40.099Z,12.49
2023-04-29T05:45:39.974Z,12.53
2023-04-29T05:47:00.935Z,12.59
2023-04-29T05:48:00.908Z,12.55
2023-04-29T05:48:39.764Z,12.61
2023-04-29T05:49:39.672Z,12.59
2023-04-29T05:50:39.622Z,12.53
2023-04-29T05:52:00.500Z,12.61
2023-04-29T05:53:00.430Z,12.64
2023-04-29T05:53:39.346Z,12.63
2023-04-29T05:54:39.281Z,12.60
2023-04-29T05:55:39.225Z,12.53
2023-04-29T05:57:00.114Z,12.60
2023-04-29T05:58:00.008Z,12.60
2023-04-29T05:58:38.981Z,12.63
2023-04-29T05:59:38.871Z,12.73
2023-04-29T06:00:38.800Z,12.73
2023-04-29T06:01:59.757Z,12.71
2023-04-29T06:02:59.724Z,12.73
2023-04-29T06:03:38.717Z,12.77
2023-04-29T06:04:38.817Z,12.74
2023-04-29T06:05:38.697Z,12.82
2023-04-29T06:06:59.305Z,12.86
2023-04-29T06:07:59.185Z,12.85
2023-04-29T06:08:38.186Z,12.89
2023-04-29T06:09:38.058Z,12.92
2023-04-29T06:10:38.002Z,12.94
2023-04-29T06:11:58.926Z,13.02
2023-04-29T06:12:58.820Z,13.03
2023-04-29T06:13:37.793Z,13.04
2023-04-29T06:14:37.670Z,13.02
2023-04-29T06:15:37.584Z,13.03
2023-04-29T06:16:58.504Z,13.10
2023-04-29T06:17:58.515Z,13.17
2023-04-29T06:18:37.352Z,13.17
2023-04-29T06:19:37.284Z,13.21
2023-04-29T06:20:37.665Z,13.21
2023-04-29T06:21:58.098Z,13.25
2023-04-29T06:22:58.013Z,13.25
2023-04-29T06:23:36.982Z,13.29
2023-04-29T06:24:36.902Z,13.32
2023-04-29T06:25:36.773Z,13.32
2023-04-29T06:26:57.688Z,13.32
2023-04-29T06:27:57.611Z,13.36
2023-04-29T06:28:36.554Z,13.37
2023-04-29T06:29:36.487Z,13.40
2023-04-29T06:30:36.392Z,13.43
2023-04-29T06:31:57.373Z,13.43
2023-04-29T06:32:57.267Z,13.45
2023-04-29T06:33:36.145Z,13.56
2023-04-29T06:34:36.047Z,13.56
2023-04-29T06:35:35.995Z,13.61
2023-04-29T06:36:56.893Z,13.62
2023-04-29T06:37:56.854Z,13.66
2023-04-29T06:38:35.762Z,13.65
2023-04-29T06:39:35.769Z,13.59
2023-04-29T06:40:35.636Z,13.59
2023-04-29T06:41:56.549Z,13.73
2023-04-29T06:42:56.437Z,13.70
2023-04-29T06:43:35.391Z,13.77
2023-04-29T06:44:35.290Z,13.83
2023-04-29T06:45:35.209Z,13.83
2023-04-29T06:46:56.109Z,13.91
2023-04-29T06:47:56.108Z,13.95
2023-04-29T06:48:34.979Z,13.92
2023-04-29T06:49:34.888Z,13.95
2023-04-29T06:50:34.817Z,14.03
2023-04-29T06:51:55.688Z,13.99
2023-04-29T06:52:55.632Z,13.96
2023-04-29T06:53:34.569Z,14.01
2023-04-29T06:54:34.495Z,14.07
2023-04-29T06:55:34.406Z,14.03
2023-04-29T06:56:55.302Z,14.17
2023-04-29T06:57:55.253Z,14.14
2023-04-29T06:58:34.161Z,14.24
2023-04-29T06:59:34.115Z,14.14
2023-04-29T07:00:34.020Z,14.28
2023-04-29T07:01:54.949Z,14.29
2023-04-29T07:02:54.949Z,14.32
2023-04-29T07:03:33.902Z,14.39
2023-04-29T07:04:33.711Z,14.32
2023-04-29T07:05:33.618Z,14.42
2023-04-29T07:06:54.547Z,14.42
2023-04-29T07:07:54.443Z,14.42
2023-04-29T07:08:33.424Z,14.46
2023-04-29T07:09:33.298Z,14.50
2023-04-29T07:10:33.194Z,14.46
2023-04-29T07:11:54.145Z,14.49
2023-04-29T07:12:54.037Z,14.50
2023-04-29T07:13:32.974Z,14.53
2023-04-29T07:14:32.908Z,14.54
2023-04-29T07:15:32.821Z,14.57
2023-04-29T07:16:53.741Z,14.59
2023-04-29T07:17:53.693Z,14.56
2023-04-29T07:18:32.601Z,14.60
2023-04-29T07:19:32.555Z,14.61
2023-04-29T07:20:32.449Z,14.61
2023-04-29T07:21:53.358Z,14.60
2023-04-29T07:22:53.254Z,14.61
2023-04-29T07:23:32.214Z,14.60
2023-04-29T07:24:32.107Z,14.60
2023-04-29T07:25:32.031Z,14.59
2023-04-29T07:26:52.924Z,14.53
2023-04-29T07:27:52.885Z,14.56
2023-04-29T07:28:31.790Z,14.56
2023-04-29T07:29:31.702Z,14.67
2023-04-29T07:30:31.658Z,14.61
2023-04-29T07:31:52.553Z,14.59
2023-04-29T07:32:52.492Z,14.59
2023-04-29T07:33:31.436Z,14.64
2023-04-29T07:34:31.319Z,14.65
2023-04-29T07:35:31.246Z,14.60
2023-04-29T07:36:52.139Z,14.61
2023-04-29T07:37:52.072Z,14.64
2023-04-29T07:38:31.015Z,14.64
2023-04-29T07:39:30.908Z,14.64
2023-04-29T07:40:30.844Z,14.64
2023-04-29T07:41:51.728Z,14.60
2023-04-29T07:42:51.690Z,14.56
2023-04-29T07:43:30.615Z,14.57
2023-04-29T07:44:30.524Z,14.47
2023-04-29T07:45:30.450Z,14.57
2023-04-29T07:46:51.340Z,14.61
2023-04-29T07:47:51.356Z,14.52
2023-04-29T07:48:30.227Z,14.50
2023-04-29T07:49:30.136Z,14.50
2023-04-29T07:50:30.029Z,14.54
2023-04-29T07:51:50.976Z,14.50
2023-04-29T07:52:50.857Z,14.57
2023-04-29T07:53:29.821Z,14.53
2023-04-29T07:54:29.717Z,14.49
2023-04-29T07:55:29.652Z,14.53
2023-04-29T07:56:50.541Z,14.49
2023-04-29T07:57:50.514Z,14.54
2023-04-29T07:58:29.437Z,14.53
2023-04-29T07:59:29.347Z,14.53
2023-04-29T08:00:29.264Z,14.57
2023-04-29T08:01:50.192Z,14.59
2023-04-29T08:02:50.238Z,14.61
2023-04-29T08:03:29.245Z,14.65
2023-04-29T08:04:29.064Z,14.68
2023-04-29T08:05:29.117Z,14.65
2023-04-29T08:06:49.757Z,14.68
2023-04-29T08:07:49.698Z,14.68
2023-04-29T08:08:28.624Z,14.57
2023-04-29T08:09:28.589Z,14.64
2023-04-29T08:10:28.475Z,14.67
2023-04-29T08:11:49.399Z,14.64
2023-04-29T08:12:49.298Z,14.65
2023-04-29T08:13:28.276Z,14.59
2023-04-29T08:14:28.156Z,14.57
2023-04-29T08:15:28.087Z,14.59
2023-04-29T08:16:48.980Z,14.57
2023-04-29T08:17:48.940Z,14.57
2023-04-29T08:18:27.843Z,14.56
2023-04-29T08:19:27.753Z,14.57
2023-04-29T08:20:27.657Z,14.52
2023-04-29T08:21:48.601Z,14.56
2023-04-29T08:22:48.510Z,14.60
2023-04-29T08:23:27.462Z,14.56
2023-04-29T08:24:27.370Z,14.71
2023-04-29T08:25:27.344Z,14.61
2023-04-29T08:26:48.368Z,14.69
2023-04-29T08:27:48.122Z,14.78
2023-04-29T08:28:27.072Z,14.85
2023-04-29T08:29:26.974Z,14.80
2023-04-29T08:30:26.887Z,14.85
2023-04-29T08:31:47.813Z,14.91
2023-04-29T08:32:47.782Z,14.85
2023-04-29T08:33:26.658Z,14.83
2023-04-29T08:34:26.596Z,14.88
2023-04-29T08:35:26.487Z,14.97
2023-04-29T08:36:47.384Z,14.90
2023-04-29T08:37:47.352Z,14.85
2023-04-29T08:38:26.258Z,14.87
2023-04-29T08:39:26.196Z,14.88
2023-04-29T08:40:26.104Z,14.84
2023-04-29T08:41:47.019Z,14.83
2023-04-29T08:42:48.876Z,14.83
2023-04-29T08:43:25.874Z,14.80
2023-04-29T08:44:25.781Z,14.85
2023-04-29T08:45:25.799Z,14.88
2023-04-29T08:46:46.644Z,14.90
2023-04-29T08:47:46.567Z,15.01
2023-04-29T08:48:25.613Z,14.95
2023-04-29T08:49:25.424Z,14.94
2023-04-29T08:50:25.416Z,14.98
2023-04-29T08:51:46.358Z,15.13
2023-04-29T08:52:46.127Z,15.18
2023-04-29T08:53:25.089Z,15.18
2023-04-29T08:54:25.000Z,15.26
2023-04-29T08:55:24.953Z,15.41
2023-04-29T08:56:45.843Z,15.41
2023-04-29T08:57:45.761Z,15.46
2023-04-29T08:58:24.709Z,15.52
2023-04-29T08:59:24.616Z,15.43
2023-04-29T09:00:24.532Z,15.53
2023-04-29T09:01:45.561Z,15.70
2023-04-29T09:02:45.430Z,15.91
2023-04-29T09:03:24.368Z,16.04
2023-04-29T09:04:24.227Z,16.27
2023-04-29T09:05:24.130Z,16.23
2023-04-29T09:06:45.032Z,16.18
2023-04-29T09:07:44.989Z,16.15
2023-04-29T09:08:23.941Z,16.22
2023-04-29T09:09:23.822Z,16.22
2023-04-29T09:10:23.746Z,16.27
2023-04-29T09:11:44.704Z,16.25
2023-04-29T09:12:44.551Z,16.25
2023-04-29T09:13:23.520Z,16.34
2023-04-29T09:14:23.412Z,16.35
2023-04-29T09:15:23.361Z,16.37
2023-04-29T09:16:44.281Z,16.30
2023-04-29T09:17:44.210Z,16.15
2023-04-29T09:18:23.119Z,16.15
2023-04-29T09:19:23.049Z,16.14
2023-04-29T09:20:22.986Z,16.10
2023-04-29T09:21:43.877Z,16.10
2023-04-29T09:22:43.811Z,16.04
2023-04-29T09:23:22.736Z,16.04
2023-04-29T09:24:22.661Z,16.06
2023-04-29T09:25:22.608Z,16.04
2023-04-29T09:26:43.696Z,15.89
2023-04-29T09:27:43.389Z,15.94
2023-04-29T09:28:22.343Z,15.86
2023-04-29T09:29:22.291Z,15.75
2023-04-29T09:30:22.189Z,15.78
2023-04-29T09:31:43.187Z,15.70
2023-04-29T09:32:43.029Z,15.75
2023-04-29T09:33:21.955Z,15.60
2023-04-29T09:34:21.873Z,15.66
2023-04-29T09:35:21.831Z,15.67
2023-04-29T09:36:42.717Z,15.60
2023-04-29T09:37:42.606Z,15.66
2023-04-29T09:38:21.561Z,15.59
2023-04-29T09:39:21.494Z,15.66
2023-04-29T09:40:21.384Z,15.66
2023-04-29T09:41:42.338Z,15.63
2023-04-29T09:42:42.215Z,15.75
2023-04-29T09:43:21.184Z,15.85
2023-04-29T09:44:21.111Z,16.01
2023-04-29T09:45:21.017Z,16.14
2023-04-29T09:46:42.004Z,16.34
2023-04-29T09:47:41.877Z,16.38
2023-04-29T09:48:20.804Z,16.40
2023-04-29T09:49:20.708Z,16.59
2023-04-29T09:50:20.635Z,16.77
2023-04-29T09:51:41.539Z,16.92
2023-04-29T09:52:41.447Z,16.99
2023-04-29T09:53:20.419Z,17.10
2023-04-29T09:54:20.309Z,17.17
2023-04-29T09:55:20.236Z,17.36
2023-04-29T09:56:41.151Z,17.25
2023-04-29T09:57:42.724Z,17.29
2023-04-29T09:58:19.996Z,17.21
2023-04-29T09:59:19.956Z,17.17
2023-04-29T10:00:19.869Z,17.15
2023-04-29T10:01:40.811Z,17.13
2023-04-29T10:02:40.699Z,17.18
2023-04-29T10:03:19.695Z,17.25
2023-04-29T10:04:19.573Z,17.32
2023-04-29T10:05:19.485Z,17.21
2023-04-29T10:06:40.353Z,17.25
2023-04-29T10:07:40.302Z,17.15
2023-04-29T10:08:19.201Z,17.08
2023-04-29T10:09:19.177Z,17.08
2023-04-29T10:10:19.048Z,17.10
2023-04-29T10:11:40.000Z,17.07
2023-04-29T10:12:39.901Z,17.05
2023-04-29T10:13:18.844Z,16.99
2023-04-29T10:14:18.763Z,17.10
2023-04-29T10:15:18.683Z,16.92
2023-04-29T10:16:39.624Z,16.98
2023-04-29T10:17:39.556Z,16.99
2023-04-29T10:18:18.484Z,16.90
2023-04-29T10:19:18.403Z,16.84
2023-04-29T10:20:18.296Z,16.88
2023-04-29T10:21:39.192Z,16.84
2023-04-29T10:22:39.131Z,16.81
2023-04-29T10:23:18.096Z,16.81
2023-04-29T10:24:17.983Z,16.77
2023-04-29T10:25:17.917Z,16.70
2023-04-29T10:26:38.831Z,16.66
2023-04-29T10:27:38.744Z,16.75
2023-04-29T10:28:17.664Z,16.71
2023-04-29T10:29:17.622Z,16.80
2023-04-29T10:30:17.529Z,16.67
2023-04-29T10:31:38.461Z,16.67
2023-04-29T10:32:49.734Z,16.66
2023-04-29T10:33:17.324Z,16.73
2023-04-29T10:34:17.209Z,16.59
2023-04-29T10:35:17.139Z,16.59
2023-04-29T10:36:38.058Z,16.44
2023-04-29T10:37:37.942Z,16.45
2023-04-29T10:38:18.950Z,16.55
2023-04-29T10:39:16.852Z,16.50
2023-04-29T10:40:16.742Z,16.42
2023-04-29T10:41:37.652Z,16.47
2023-04-29T10:42:37.588Z,16.44
2023-04-29T10:43:16.526Z,16.42
2023-04-29T10:44:16.488Z,16.45
2023-04-29T10:45:16.341Z,16.42
2023-04-29T10:46:37.295Z,16.35
2023-04-29T10:47:37.218Z,16.42
2023-04-29T10:48:16.130Z,16.40
2023-04-29T10:49:16.033Z,16.41
2023-04-29T10:50:15.968Z,16.40
2023-04-29T10:51:36.878Z,16.47
2023-04-29T10:52:36.820Z,16.42
2023-04-29T10:53:15.737Z,16.44
2023-04-29T10:54:15.677Z,16.45
2023-04-29T10:55:15.554Z,16.37
2023-04-29T10:56:36.508Z,16.47
2023-04-29T10:57:36.386Z,16.45
2023-04-29T10:58:15.372Z,16.41
2023-04-29T10:59:15.272Z,16.38
2023-04-29T11:00:15.343Z,16.38
2023-04-29T11:01:36.128Z,16.38
2023-04-29T11:02:36.098Z,16.35
2023-04-29T11:03:15.004Z,16.34
2023-04-29T11:04:14.932Z,16.33
2023-04-29T11:05:14.816Z,16.30
2023-04-29T11:06:35.716Z,16.25
2023-04-29T11:07:35.695Z,16.29
2023-04-29T11:08:14.573Z,16.30
2023-04-29T11:09:14.561Z,16.34
2023-04-29T11:10:14.490Z,16.34
2023-04-29T11:11:35.343Z,16.37
2023-04-29T11:12:35.278Z,16.38
2023-04-29T11:13:14.178Z,16.44
2023-04-29T11:14:14.140Z,16.41
2023-04-29T11:15:14.024Z,16.41
2023-04-29T11:16:34.959Z,16.50
2023-04-29T11:17:34.857Z,16.55
2023-04-29T11:18:13.783Z,16.52
2023-04-29T11:19:13.743Z,16.52
2023-04-29T11:20:13.769Z,16.56
2023-04-29T11:21:34.540Z,16.53
2023-04-29T11:22:34.479Z,16.53
2023-04-29T11:23:13.444Z,16.53
2023-04-29T11:24:13.339Z,16.45
2023-04-29T11:25:13.250Z,16.44
2023-04-29T11:26:34.192Z,16.35
2023-04-29T11:27:34.068Z,16.37
2023-04-29T11:28:13.023Z,16.35
2023-04-29T11:29:12.952Z,16.34
2023-04-29T11:30:12.938Z,16.35
2023-04-29T11:31:33.863Z,16.27
2023-04-29T11:32:33.788Z,16.25
2023-04-29T11:33:12.688Z,16.25
2023-04-29T11:34:12.538Z,16.30
2023-04-29T11:35:12.495Z,16.37
2023-04-29T11:36:33.391Z,16.33
2023-04-29T11:37:33.292Z,16.35
2023-04-29T11:38:12.260Z,16.30
2023-04-29T11:39:12.201Z,16.37
2023-04-29T11:40:12.144Z,16.33
2023-04-29T11:41:32.998Z,16.23
2023-04-29T11:42:32.930Z,16.18
2023-04-29T11:43:11.853Z,16.14
2023-04-29T11:44:11.774Z,16.20
2023-04-29T11:45:11.705Z,16.22
2023-04-29T11:46:32.674Z,16.16
2023-04-29T11:47:32.570Z,16.20
2023-04-29T11:48:11.525Z,16.10
2023-04-29T11:49:11.394Z,16.10
2023-04-29T11:50:11.369Z,16.08
2023-04-29T11:51:32.215Z,16.06
2023-04-29T11:52:32.139Z,16.12
2023-04-29T11:53:11.094Z,16.16
2023-04-29T11:54:11.056Z,16.20
2023-04-29T11:55:10.935Z,16.23
2023-04-29T11:56:31.825Z,16.14
2023-04-29T11:57:31.731Z,16.10
2023-04-29T11:58:10.671Z,16.22
2023-04-29T11:59:10.634Z,16.12
2023-04-29T12:00:10.522Z,16.14
2023-04-29T12:01:31.445Z,16.26
2023-04-29T12:02:31.488Z,16.20
2023-04-29T12:03:10.520Z,16.25
2023-04-29T12:04:10.431Z,16.35
2023-04-29T12:05:10.413Z,16.34
2023-04-29T12:06:31.090Z,16.37
2023-04-29T12:07:30.961Z,16.40
2023-04-29T12:08:09.911Z,16.26
2023-04-29T12:09:09.809Z,16.25
2023-04-29T12:10:09.820Z,16.30
2023-04-29T12:11:30.663Z,16.27
2023-04-29T12:12:30.588Z,16.35
2023-04-29T12:13:10.255Z,16.33
2023-04-29T12:14:09.444Z,16.29
2023-04-29T12:15:09.358Z,16.29
2023-04-29T12:16:30.362Z,16.42
2023-04-29T12:17:30.202Z,16.42
2023-04-29T12:18:09.222Z,16.37
2023-04-29T12:19:09.047Z,16.41
2023-04-29T12:20:08.966Z,16.47
2023-04-29T12:21:29.864Z,16.38
2023-04-29T12:22:29.803Z,16.42
2023-04-29T12:23:08.715Z,16.47
2023-04-29T12:24:08.696Z,16.45
2023-04-29T12:25:08.618Z,16.38
2023-04-29T12:26:29.511Z,16.38
2023-04-29T12:27:29.403Z,16.40
2023-04-29T12:28:08.593Z,16.40
2023-04-29T12:29:08.286Z,16.29
2023-04-29T12:30:08.228Z,16.37
2023-04-29T12:31:29.114Z,16.35
2023-04-29T12:32:29.056Z,16.35
2023-04-29T12:33:08.030Z,16.40
2023-04-29T12:34:09.978Z,16.37
2023-04-29T12:35:07.803Z,16.40
2023-04-29T12:36:28.729Z,16.40
2023-04-29T12:37:28.631Z,16.38
2023-04-29T12:38:07.579Z,16.35
2023-04-29T12:39:07.493Z,16.37
2023-04-29T12:40:07.441Z,16.34
2023-04-29T12:41:28.294Z,16.30
2023-04-29T12:42:28.256Z,16.30
2023-04-29T12:43:07.164Z,16.29
2023-04-29T12:44:07.211Z,16.14
2023-04-29T12:45:07.106Z,16.20
2023-04-29T12:46:27.969Z,16.20
2023-04-29T12:47:27.883Z,16.22
2023-04-29T12:48:10.007Z,16.14
2023-04-29T12:49:06.774Z,16.23
2023-04-29T12:50:06.647Z,16.18
2023-04-29T12:51:27.561Z,16.16
2023-04-29T12:52:27.485Z,16.30